Time;durP1;ratioP1;P1;durP2;ratioP2;P2;SDS_P1;SDS_P2;PMS_P1;PMS_P2;Temp;Humidity;BMP_temperature;BMP_pressure;BME280_temperature;BME280_humidity;BME280_pressure;Samples;Min_cycle;Max_cycle;Signal;HPM_P1;HPM_P2
2022/08/17 00:00:33;;;;;;;47.53;33.95;;;16.20;99.90;;;;;;5052153;28;20021;-68
2022/08/17 00:03:18;;;;;;;45.17;34.60;;;16.20;99.90;;;;;;5053124;28;20035;-68
2022/08/17 00:06:07;;;;;;;40.75;30.27;;;16.10;99.90;;;;;;5033925;28;20530;-68
2022/08/17 00:08:35;;;;;;;50.78;35.65;;;16.10;99.90;;;;;;5033935;28;20525;-67
2022/08/17 00:11:05;;;;;;;43.17;32.28;;;16.10;99.90;;;;;;5033110;28;20034;-67
2022/08/17 00:13:36;;;;;;;39.78;31.63;;;16.10;99.90;;;;;;5033212;28;20021;-68
2022/08/17 00:16:07;;;;;;;37.53;29.30;;;16.10;99.90;;;;;;5033773;28;20424;-67
2022/08/17 00:18:33;;;;;;;31.90;26.98;;;16.00;99.90;;;;;;5052975;28;20047;-68
2022/08/17 00:21:00;;;;;;;31.52;26.02;;;16.00;99.90;;;;;;5053082;28;20029;-67
2022/08/17 00:23:27;;;;;;;29.63;25.00;;;15.90;99.90;;;;;;5053047;28;20029;-67
2022/08/17 00:25:53;;;;;;;33.03;24.98;;;15.90;99.90;;;;;;5053577;28;20139;-67
2022/08/17 00:28:19;;;;;;;30.42;25.05;;;15.90;99.90;;;;;;5053284;28;20376;-67
2022/08/17 00:30:48;;;;;;;34.30;28.58;;;15.90;99.90;;;;;;5052793;28;20025;-67
2022/08/17 00:33:17;;;;;;;36.33;28.48;;;15.90;99.90;;;;;;5050821;28;20033;-68
2022/08/17 00:35:44;;;;;;;30.10;24.60;;;15.80;99.90;;;;;;5053240;28;20029;-67
2022/08/17 00:38:11;;;;;;;37.47;25.67;;;15.70;99.90;;;;;;5053031;28;20047;-69
2022/08/17 00:40:49;;;;;;;38.70;25.75;;;15.60;99.90;;;;;;5053508;28;20440;-69
2022/08/17 00:43:32;;;;;;;39.67;29.90;;;15.50;99.90;;;;;;5052738;28;20127;-69
2022/08/17 00:45:59;;;;;;;39.45;26.05;;;15.50;99.90;;;;;;5052911;28;20100;-67
2022/08/17 00:48:26;;;;;;;43.50;28.27;;;15.50;99.90;;;;;;5052703;28;20032;-68
2022/08/17 00:51:14;;;;;;;38.03;30.52;;;15.50;99.90;;;;;;5050491;28;20029;-68
2022/08/17 00:53:43;;;;;;;49.60;36.13;;;15.50;99.90;;;;;;5053132;28;20025;-67
2022/08/17 00:56:13;;;;;;;45.05;32.08;;;15.40;99.90;;;;;;5052764;28;20032;-68
2022/08/17 00:58:39;;;;;;;42.40;32.70;;;15.50;99.90;;;;;;5053065;28;20443;-68
2022/08/17 01:01:09;;;;;;;39.60;32.85;;;15.40;99.90;;;;;;5052555;28;20108;-68
2022/08/17 01:03:36;;;;;;;42.55;30.85;;;15.40;99.90;;;;;;5052525;28;20017;-68
2022/08/17 01:06:04;;;;;;;42.63;32.28;;;15.40;99.90;;;;;;5051565;28;20036;-68
2022/08/17 01:08:31;;;;;;;45.95;32.00;;;15.30;99.90;;;;;;5052939;28;20029;-67
2022/08/17 01:11:00;;;;;;;52.22;34.40;;;15.30;99.90;;;;;;5052506;28;20025;-67
2022/08/17 01:13:30;;;;;;;46.58;33.58;;;15.20;99.90;;;;;;5052405;28;20013;-68
2022/08/17 01:16:00;;;;;;;45.70;34.47;;;15.10;99.90;;;;;;5052621;28;20029;-67
2022/08/17 01:18:27;;;;;;;55.35;35.13;;;15.00;99.90;;;;;;5056154;28;20021;-67
2022/08/17 01:20:57;;;;;;;48.85;33.05;;;14.90;99.90;;;;;;5056286;28;20091;-67
2022/08/17 01:23:24;;;;;;;76.35;44.83;;;14.80;99.90;;;;;;5054183;28;20044;-67
2022/08/17 01:25:53;;;;;;;62.70;44.90;;;14.80;99.90;;;;;;5056172;28;20187;-69
2022/08/17 01:28:19;;;;;;;42.35;33.03;;;14.80;99.90;;;;;;5056059;28;20029;-69
2022/08/17 01:30:46;;;;;;;36.67;29.08;;;14.80;99.90;;;;;;5055656;28;20112;-69
2022/08/17 01:33:12;;;;;;;41.65;30.50;;;14.90;99.90;;;;;;5051338;28;20047;-68
2022/08/17 01:35:38;;;;;;;49.60;34.88;;;14.90;99.90;;;;;;5055922;28;20025;-68
2022/08/17 01:38:05;;;;;;;46.65;30.45;;;14.90;99.90;;;;;;5056110;28;20033;-68
2022/08/17 01:40:37;;;;;;;57.58;35.17;;;14.90;99.90;;;;;;5055795;28;20086;-68
2022/08/17 01:43:13;;;;;;;54.83;36.97;;;14.80;99.90;;;;;;5094624;22;20061;-70
2022/08/17 01:45:43;;;;;;;67.90;43.75;;;14.80;99.90;;;;;;5056199;28;20096;-70
2022/08/17 01:48:10;;;;;;;68.57;46.20;;;14.80;99.90;;;;;;5054281;28;20021;-70
2022/08/17 01:50:38;;;;;;;60.42;41.85;;;14.80;99.90;;;;;;5056258;28;20116;-70
2022/08/17 01:53:12;;;;;;;48.95;37.80;;;14.80;99.90;;;;;;5055671;28;20021;-70
2022/08/17 01:55:57;;;;;;;62.85;44.53;;;14.80;99.90;;;;;;5055890;28;20056;-70
2022/08/17 01:58:23;;;;;;;41.50;36.05;;;14.80;99.90;;;;;;5055945;28;20032;-70
2022/08/17 02:00:50;;;;;;;39.83;31.90;;;14.80;99.90;;;;;;5054932;28;20021;-69
2022/08/17 02:03:21;;;;;;;39.25;31.35;;;14.80;99.90;;;;;;5055461;28;20067;-70
2022/08/17 02:05:47;;;;;;;49.35;37.38;;;14.90;99.90;;;;;;5055606;28;20032;-70
2022/08/17 02:08:14;;;;;;;44.63;36.15;;;14.90;99.90;;;;;;5055473;28;20036;-69
2022/08/17 02:10:40;;;;;;;45.90;35.30;;;14.90;99.90;;;;;;5055363;28;20486;-69
2022/08/17 02:13:06;;;;;;;46.95;37.42;;;15.00;99.90;;;;;;5055283;28;20151;-69
2022/08/17 02:15:33;;;;;;;72.70;42.95;;;15.00;99.90;;;;;;5055294;28;20477;-69
2022/08/17 02:18:00;;;;;;;42.08;35.80;;;15.00;99.90;;;;;;5054161;28;20024;-69
2022/08/17 02:20:26;;;;;;;41.60;32.90;;;15.00;99.90;;;;;;5054007;28;20144;-68
2022/08/17 02:22:51;;;;;;;44.30;35.78;;;14.90;99.90;;;;;;5055075;28;20060;-70
2022/08/17 02:25:19;;;;;;;49.67;37.15;;;14.90;99.90;;;;;;5055107;28;20064;-69
2022/08/17 02:27:45;;;;;;;46.25;35.08;;;14.80;99.90;;;;;;5054387;28;20554;-69
2022/08/17 02:30:13;;;;;;;42.65;34.88;;;14.80;99.90;;;;;;5052321;28;20384;-69
2022/08/17 02:32:39;;;;;;;45.10;35.47;;;14.70;99.90;;;;;;5054915;28;20032;-69
2022/08/17 02:35:06;;;;;;;47.88;36.65;;;14.70;99.90;;;;;;5054910;28;20025;-69
2022/08/17 02:37:32;;;;;;;53.38;39.13;;;14.70;99.90;;;;;;5055378;28;20029;-69
2022/08/17 02:39:58;;;;;;;47.65;34.90;;;14.60;99.90;;;;;;5054825;28;20079;-69
2022/08/17 02:42:32;;;;;;;52.55;39.13;;;14.60;99.90;;;;;;5055133;28;20123;-69
2022/08/17 02:44:59;;;;;;;47.22;37.85;;;14.50;99.90;;;;;;5053308;28;20068;-69
2022/08/17 02:47:25;;;;;;;57.97;40.35;;;14.40;99.90;;;;;;5054998;28;20377;-69
2022/08/17 02:49:52;;;;;;;58.67;40.85;;;14.40;99.90;;;;;;5054576;28;20439;-69
2022/08/17 02:52:17;;;;;;;67.45;46.58;;;14.40;99.90;;;;;;5054478;28;20465;-68
2022/08/17 02:54:43;;;;;;;62.72;46.80;;;14.40;99.90;;;;;;5054809;28;20021;-68
2022/08/17 02:57:09;;;;;;;55.90;41.67;;;14.40;99.90;;;;;;5054514;28;20465;-68
2022/08/17 02:59:36;;;;;;;62.45;43.50;;;14.40;99.90;;;;;;5053599;28;20033;-69
2022/08/17 03:02:03;;;;;;;57.13;44.35;;;14.40;99.90;;;;;;5054431;28;20082;-69
2022/08/17 03:04:29;;;;;;;53.90;41.45;;;14.40;99.90;;;;;;5036459;28;20029;-69
2022/08/17 03:06:55;;;;;;;43.63;35.55;;;14.40;99.90;;;;;;5054320;28;20017;-69
2022/08/17 03:09:20;;;;;;;43.72;36.55;;;14.40;99.90;;;;;;5054296;28;20032;-69
2022/08/17 03:11:46;;;;;;;39.83;34.60;;;14.30;99.90;;;;;;5050473;28;20032;-69
2022/08/17 03:14:11;;;;;;;40.00;33.63;;;14.30;99.90;;;;;;5051523;28;20100;-68
2022/08/17 03:16:37;;;;;;;39.63;33.97;;;14.40;99.90;;;;;;5052906;28;20047;-68
2022/08/17 03:19:03;;;;;;;39.78;34.97;;;14.20;99.90;;;;;;5054227;28;20071;-68
2022/08/17 03:21:28;;;;;;;37.05;33.13;;;14.20;99.90;;;;;;5054438;28;20525;-68
2022/08/17 03:23:54;;;;;;;37.13;32.55;;;14.20;99.90;;;;;;5053092;28;20451;-69
2022/08/17 03:26:19;;;;;;;38.08;32.00;;;14.10;99.90;;;;;;5054358;28;20040;-69
2022/08/17 03:28:45;;;;;;;54.97;39.28;;;14.20;99.90;;;;;;5054473;28;20202;-68
2022/08/17 03:31:10;;;;;;;60.67;46.00;;;14.20;99.90;;;;;;5054114;28;20079;-68
2022/08/17 03:33:36;;;;;;;58.45;43.38;;;14.20;99.90;;;;;;5053405;28;20464;-69
2022/08/17 03:36:02;;;;;;;53.28;42.08;;;14.20;99.90;;;;;;5053996;28;20380;-69
2022/08/17 03:38:27;;;;;;;57.63;45.15;;;14.20;99.90;;;;;;5053246;28;20025;-69
2022/08/17 03:40:54;;;;;;;62.38;46.92;;;14.20;99.90;;;;;;5053546;28;20037;-69
2022/08/17 03:43:21;;;;;;;54.85;41.90;;;14.30;99.90;;;;;;5053555;28;20036;-69
2022/08/17 03:57:02;;;;;;;42.78;38.08;;;14.40;99.90;;;;;;5053919;28;20044;-69
2022/08/17 03:59:28;;;;;;;42.40;33.83;;;14.40;99.90;;;;;;5053579;28;20082;-69
2022/08/17 04:01:57;;;;;;;37.00;31.95;;;14.50;99.90;;;;;;5053491;28;20032;-69
2022/08/17 04:04:22;;;;;;;41.08;33.53;;;14.60;99.90;;;;;;5053471;28;20020;-69
2022/08/17 04:06:48;;;;;;;42.67;36.67;;;14.70;99.90;;;;;;5052576;28;20032;-69
2022/08/17 04:09:14;;;;;;;42.28;37.90;;;14.70;99.90;;;;;;5053756;28;20426;-69
2022/08/17 04:11:40;;;;;;;35.35;31.70;;;14.80;99.90;;;;;;5053316;28;20469;-69
2022/08/17 04:14:06;;;;;;;35.58;31.80;;;14.80;99.90;;;;;;5053245;28;20031;-69
2022/08/17 04:16:34;;;;;;;42.55;37.72;;;14.70;99.90;;;;;;5050585;28;20370;-69
2022/08/17 04:19:00;;;;;;;44.80;40.00;;;14.80;99.90;;;;;;5052150;28;20099;-69
2022/08/17 04:21:25;;;;;;;40.63;36.40;;;14.80;99.90;;;;;;5052564;28;20119;-69
2022/08/17 04:23:51;;;;;;;43.75;38.75;;;14.80;99.90;;;;;;5052444;28;20543;-69
2022/08/17 04:26:17;;;;;;;50.75;41.83;;;14.90;99.90;;;;;;5053211;28;20025;-69
2022/08/17 04:28:43;;;;;;;56.08;44.25;;;14.90;99.90;;;;;;5053641;28;20025;-69
2022/08/17 04:31:11;;;;;;;51.30;40.55;;;14.90;99.90;;;;;;5053135;28;20071;-69
2022/08/17 04:33:38;;;;;;;50.97;42.08;;;15.20;99.90;;;;;;5049925;28;20054;-69
2022/08/17 04:36:05;;;;;;;57.22;44.40;;;15.30;99.90;;;;;;5053277;28;20025;-70
2022/08/17 04:38:33;;;;;;;59.10;47.15;;;15.40;99.90;;;;;;5053441;28;20017;-70
2022/08/17 04:43:46;;;;;;;60.22;43.72;;;15.50;99.90;;;;;;5053208;28;20087;-70
2022/08/17 04:46:15;;;;;;;57.72;42.00;;;15.50;99.90;;;;;;5052254;28;20032;-70
2022/08/17 04:48:47;;;;;;;59.92;45.00;;;15.60;99.90;;;;;;5053073;28;20036;-69
2022/08/17 04:51:14;;;;;;;49.20;37.38;;;15.60;99.90;;;;;;5053358;28;20033;-69
2022/08/17 04:53:43;;;;;;;51.88;41.08;;;15.70;99.90;;;;;;5039055;28;20028;-69
2022/08/17 04:56:09;;;;;;;69.78;52.67;;;15.60;99.90;;;;;;5057140;28;20423;-69
2022/08/17 04:58:35;;;;;;;63.97;46.75;;;15.70;99.90;;;;;;5057178;28;20016;-69
2022/08/17 05:01:01;;;;;;;66.72;49.28;;;15.70;99.90;;;;;;5054899;28;20029;-69
2022/08/17 05:03:27;;;;;;;80.40;56.22;;;15.80;99.90;;;;;;5056789;28;20029;-69
2022/08/17 05:05:53;;;;;;;83.15;53.45;;;15.80;99.90;;;;;;5056952;28;20033;-69
2022/08/17 05:08:20;;;;;;;74.50;50.22;;;15.80;99.90;;;;;;5056655;28;20032;-69
2022/08/17 05:10:47;;;;;;;74.78;52.83;;;15.80;99.90;;;;;;5056621;28;20021;-69
2022/08/17 05:13:19;;;;;;;69.85;48.08;;;15.90;99.90;;;;;;5057297;28;20457;-69
2022/08/17 05:15:46;;;;;;;110.72;60.65;;;16.00;99.90;;;;;;5055824;28;20043;-69
2022/08/17 05:18:12;;;;;;;81.85;57.28;;;16.00;99.90;;;;;;5056635;28;20071;-69
2022/08/17 05:20:39;;;;;;;80.88;54.30;;;15.90;99.90;;;;;;5056490;28;20028;-69
2022/08/17 05:23:07;;;;;;;79.28;57.20;;;16.00;99.90;;;;;;5056376;28;20024;-69
2022/08/17 05:25:37;;;;;;;74.00;51.35;;;16.00;99.90;;;;;;5056649;28;20536;-69
2022/08/17 05:28:04;;;;;;;66.82;46.80;;;16.00;99.90;;;;;;5055620;28;20020;-69
2022/08/17 05:30:30;;;;;;;68.85;51.22;;;16.10;99.90;;;;;;5056518;28;20139;-69
2022/08/17 05:32:59;;;;;;;68.13;49.30;;;16.20;99.90;;;;;;5056318;28;20468;-69
2022/08/17 05:35:31;;;;;;;75.30;54.08;;;16.30;99.90;;;;;;5055132;28;20063;-69
2022/08/17 05:37:57;;;;;;;82.15;55.92;;;16.40;99.90;;;;;;5050942;28;20040;-69
2022/08/17 05:40:24;;;;;;;82.47;56.72;;;16.40;99.90;;;;;;5056362;28;20025;-68
2022/08/17 05:42:51;;;;;;;88.40;61.15;;;16.50;99.90;;;;;;5055083;28;20067;-68
2022/08/17 05:45:19;;;;;;;87.10;60.20;;;16.60;99.90;;;;;;5055382;28;20084;-68
2022/08/17 05:47:45;;;;;;;60.65;45.63;;;16.80;99.90;;;;;;5055402;28;20036;-68
2022/08/17 05:50:22;;;;;;;63.30;45.75;;;16.80;99.90;;;;;;5056240;28;20025;-69
2022/08/17 05:53:11;;;;;;;70.18;51.55;;;16.90;99.90;;;;;;5051862;28;20056;-69
2022/08/17 05:55:59;;;;;;;88.20;57.40;;;17.00;99.90;;;;;;5044388;28;20026;-68
2022/08/17 05:58:28;;;;;;;87.43;61.03;;;17.10;99.90;;;;;;5035800;28;20024;-68
2022/08/17 06:00:56;;;;;;;80.68;57.33;;;17.30;99.90;;;;;;5035901;28;20081;-68
2022/08/17 06:03:45;;;;;;;69.50;50.97;;;17.40;99.90;;;;;;5052009;28;20037;-69
2022/08/17 06:06:11;;;;;;;71.75;50.80;;;17.40;99.90;;;;;;5055887;28;20020;-68
2022/08/17 06:09:25;;;;;;;71.55;51.92;;;17.40;99.90;;;;;;5055899;28;20032;-68
2022/08/17 06:12:03;;;;;;;87.25;56.03;;;17.40;99.90;;;;;;5055509;28;20029;-68
2022/08/17 06:14:40;;;;;;;80.03;55.25;;;17.40;99.90;;;;;;5055419;28;20032;-68
2022/08/17 06:17:12;;;;;;;76.55;54.30;;;17.50;99.90;;;;;;5053990;28;20075;-68
2022/08/17 06:19:49;;;;;;;73.85;51.17;;;17.60;99.90;;;;;;5055481;28;20063;-68
2022/08/17 06:22:18;;;;;;;68.60;47.50;;;17.70;99.90;;;;;;5055138;28;20017;-68
2022/08/17 06:24:56;;;;;;;82.70;54.40;;;17.90;99.90;;;;;;5055498;28;20024;-68
2022/08/17 06:27:39;;;;;;;68.45;45.28;;;18.10;99.90;;;;;;5055452;28;20052;-68
2022/08/17 06:30:12;;;;;;;65.90;44.80;;;18.30;99.90;;;;;;5053610;28;20021;-69
2022/08/17 06:32:42;;;;;;;68.68;47.30;;;18.50;99.90;;;;;;5054522;28;20039;-68
2022/08/17 06:35:12;;;;;;;61.50;41.10;;;18.50;99.90;;;;;;5055224;28;20025;-68
2022/08/17 06:37:57;;;;;;;63.15;42.28;;;18.70;99.90;;;;;;5055157;28;20128;-68
2022/08/17 06:40:44;;;;;;;86.53;52.08;;;18.80;99.90;;;;;;5055426;28;20024;-68
2022/08/17 06:43:31;;;;;;;71.55;46.28;;;18.90;99.90;;;;;;5053874;28;20039;-69
2022/08/17 06:46:04;;;;;;;68.00;44.65;;;19.00;99.90;;;;;;5054906;28;20021;-68
2022/08/17 06:48:39;;;;;;;68.88;42.92;;;19.20;99.90;;;;;;5055089;28;20036;-68
2022/08/17 06:51:31;;;;;;;64.82;40.42;;;19.40;99.90;;;;;;5054479;28;20473;-68
2022/08/17 06:54:17;;;;;;;63.70;38.88;;;19.70;99.90;;;;;;5052757;28;20040;-68
2022/08/17 06:56:52;;;;;;;70.75;46.05;;;19.90;99.90;;;;;;5054462;28;20067;-69
2022/08/17 06:59:24;;;;;;;49.95;32.22;;;20.30;99.90;;;;;;5053740;28;20028;-68
2022/08/17 07:01:51;;;;;;;49.20;32.05;;;20.50;99.90;;;;;;5054676;28;20017;-69
2022/08/17 07:04:22;;;;;;;42.22;28.17;;;20.70;99.90;;;;;;5054628;28;20071;-69
2022/08/17 07:08:00;;;;;;;50.35;28.83;;;20.80;99.90;;;;;;5054547;28;20384;-70
2022/08/17 07:09:47;;;;;;;52.78;36.00;;;21.00;99.90;;;;;;5034054;28;20397;-70
2022/08/17 07:12:23;;;;;;;69.43;42.03;;;21.00;99.90;;;;;;5034143;28;20029;-70
2022/08/17 07:14:55;;;;;;;39.88;31.25;;;21.10;99.90;;;;;;5037797;28;20024;-69
2022/08/17 07:17:22;;;;;;;61.92;43.92;;;21.40;99.90;;;;;;5054176;28;20100;-70
2022/08/17 07:19:50;;;;;;;54.58;39.80;;;21.30;99.90;;;;;;5054614;28;20051;-69
2022/08/17 07:22:32;;;;;;;46.58;34.53;;;21.40;99.90;;;;;;5051944;28;20029;-70
2022/08/17 07:25:01;;;;;;;52.72;36.20;;;21.50;99.90;;;;;;5054307;28;20036;-70
2022/08/17 07:27:36;;;;;;;40.65;31.33;;;21.70;99.90;;;;;;5054304;28;20189;-69
2022/08/17 07:30:10;;;;;;;47.97;37.60;;;22.00;99.90;;;;;;5053844;28;20025;-68
2022/08/17 07:32:42;;;;;;;44.17;30.23;;;22.20;99.90;;;;;;5053867;28;20025;-69
2022/08/17 07:35:13;;;;;;;33.92;28.15;;;22.40;99.90;;;;;;5052939;28;20442;-68
2022/08/17 07:37:42;;;;;;;37.63;28.45;;;22.50;99.90;;;;;;5051382;28;20025;-70
2022/08/17 07:40:25;;;;;;;48.08;33.78;;;22.70;99.90;;;;;;5052610;28;20033;-69
2022/08/17 07:43:10;;;;;;;42.60;32.65;;;22.70;99.90;;;;;;5054137;28;20033;-68
2022/08/17 07:48:36;;;;;;;48.58;31.45;;;23.10;99.90;;;;;;5054214;28;20116;-68
2022/08/17 07:51:23;;;;;;;44.90;29.02;;;23.40;99.90;;;;;;5052719;28;20132;-68
2022/08/17 07:53:50;;;;;;;44.30;32.50;;;23.70;99.90;;;;;;5053568;28;20020;-68
2022/08/17 07:56:30;;;;;;;36.97;27.90;;;23.80;99.90;;;;;;5053570;28;20053;-68
2022/08/17 07:59:08;;;;;;;33.47;23.02;;;23.80;99.90;;;;;;5053604;28;20389;-68
2022/08/17 08:01:36;;;;;;;33.63;23.67;;;24.00;99.90;;;;;;5053261;28;20042;-68
2022/08/17 08:04:25;;;;;;;42.63;28.27;;;24.10;99.90;;;;;;5033156;28;20531;-68
2022/08/17 08:06:53;;;;;;;28.55;23.70;;;24.20;99.90;;;;;;5051321;28;20072;-68
2022/08/17 08:09:40;;;;;;;37.40;24.17;;;24.00;99.90;;;;;;5052084;28;20075;-68
2022/08/17 08:12:28;;;;;;;28.85;21.70;;;23.80;99.90;;;;;;5052053;28;20032;-67
2022/08/17 08:15:18;;;;;;;34.95;24.00;;;23.80;99.90;;;;;;5053618;28;20025;-67
2022/08/17 08:17:50;;;;;;;32.08;23.60;;;23.90;99.90;;;;;;5052080;28;20035;-67
2022/08/17 08:20:17;;;;;;;33.80;24.40;;;23.80;99.90;;;;;;5053249;28;20048;-67
2022/08/17 08:23:11;;;;;;;29.38;21.27;;;23.60;99.90;;;;;;5035186;28;20025;-67
2022/08/17 08:25:36;;;;;;;;;;;23.40;99.90;;;;;;5007488;28;20041;-67
2022/08/17 08:28:26;;;;;;;27.70;18.08;;;23.30;99.90;;;;;;5056581;28;19905;-67
2022/08/17 08:31:02;;;;;;;26.00;20.40;;;23.60;99.90;;;;;;5037522;28;20093;-67
2022/08/17 08:33:43;;;;;;;22.83;15.45;;;24.10;99.90;;;;;;5037292;28;20156;-67
2022/08/17 08:36:38;;;;;;;28.95;20.38;;;24.60;99.90;;;;;;5037551;28;20489;-67
2022/08/17 08:39:18;;;;;;;25.15;19.67;;;24.80;99.90;;;;;;5041771;28;20025;-67
2022/08/17 08:41:57;;;;;;;17.88;14.23;;;24.90;99.90;;;;;;5057110;28;20363;-67
2022/08/17 08:44:30;;;;;;;13.43;10.27;;;25.20;99.90;;;;;;5055203;28;20094;-67
2022/08/17 08:47:35;;;;;;;27.40;19.25;;;25.60;99.90;;;;;;5057060;28;20058;-67
2022/08/17 08:50:36;;;;;;;19.40;13.95;;;25.70;99.90;;;;;;5051869;28;20044;-67
2022/08/17 08:53:05;;;;;;;15.90;12.35;;;25.80;99.90;;;;;;5055168;28;20481;-67
2022/08/17 08:56:30;;;;;;;23.83;19.17;;;25.90;99.90;;;;;;5056049;28;20428;-67
2022/08/17 08:59:31;;;;;;;22.45;15.52;;;25.80;99.90;;;;;;5015120;28;20120;-67
2022/08/17 09:02:15;;;;;;;23.75;15.80;;;25.90;99.90;;;;;;5014748;28;20036;-67
2022/08/17 09:04:46;;;;;;;29.80;16.88;;;25.80;99.90;;;;;;5036433;28;20044;-67
2022/08/17 09:07:37;;;;;;;19.00;14.32;;;25.80;99.90;;;;;;5050494;28;20492;-67
2022/08/17 09:10:24;;;;;;;20.85;14.05;;;26.10;99.90;;;;;;5048237;28;20115;-67
2022/08/17 09:13:06;;;;;;;12.15;8.63;;;26.60;99.90;;;;;;5056434;28;20507;-67
2022/08/17 09:15:40;;;;;;;23.63;16.77;;;26.80;99.90;;;;;;5036930;28;20018;-68
2022/08/17 09:18:14;;;;;;;20.52;12.70;;;26.80;99.90;;;;;;5036740;28;20481;-66
2022/08/17 09:20:58;;;;;;;20.20;11.80;;;27.00;99.90;;;;;;5042333;28;20035;-67
2022/08/17 09:23:45;;;;;;;;;;;27.20;99.90;;;;;;5054347;28;20029;-68
2022/08/17 09:26:15;;;;;;;13.93;9.40;;;27.60;99.90;;;;;;5055379;28;19909;-67
2022/08/17 09:28:48;;;;;;;18.63;13.40;;;27.80;99.90;;;;;;5056169;28;20381;-67
2022/08/17 09:31:34;;;;;;;14.90;11.38;;;27.80;99.90;;;;;;5056190;28;20159;-67
2022/08/17 09:34:04;;;;;;;20.42;12.05;;;27.50;99.90;;;;;;5056422;28;20104;-67
2022/08/17 09:36:46;;;;;;;15.23;11.27;;;27.20;99.90;;;;;;5054482;28;20488;-67
2022/08/17 09:39:35;;;;;;;10.60;7.88;;;27.20;99.90;;;;;;5036060;28;20053;-67
2022/08/17 09:42:18;;;;;;;14.38;10.10;;;27.40;99.90;;;;;;5036037;28;20025;-67
2022/08/17 09:45:17;;;;;;;18.63;9.43;;;27.60;99.90;;;;;;5035975;28;20481;-67
2022/08/17 09:47:57;;;;;;;13.35;8.13;;;27.80;99.90;;;;;;5036038;28;20037;-67
2022/08/17 09:50:59;;;;;;;20.52;13.15;;;27.80;99.90;;;;;;5052553;28;20032;-67
2022/08/17 09:53:25;;;;;;;12.27;8.75;;;27.40;99.90;;;;;;5039743;28;20496;-67
2022/08/17 09:55:59;;;;;;;9.63;5.90;;;27.20;99.90;;;;;;5054692;28;20063;-67
2022/08/17 09:58:55;;;;;;;12.07;7.75;;;27.50;99.90;;;;;;5055855;28;20377;-67
2022/08/17 10:01:47;;;;;;;13.88;6.38;;;27.80;99.90;;;;;;5055632;28;20025;-67
2022/08/17 10:04:18;;;;;;;13.93;7.03;;;28.40;99.90;;;;;;5055690;28;20389;-67
2022/08/17 10:06:56;;;;;;;11.07;5.85;;;28.90;99.90;;;;;;5055408;28;20032;-67
2022/08/17 10:09:47;;;;;;;8.80;7.00;;;29.30;99.90;;;;;;5052906;28;20040;-67
2022/08/17 10:12:25;;;;;;;14.63;6.72;;;29.40;99.90;;;;;;5055530;28;20029;-67
2022/08/17 10:15:26;;;;;;;10.57;6.18;;;29.00;99.90;;;;;;5055472;28;20439;-67
2022/08/17 10:18:13;;;;;;;11.85;5.03;;;28.70;99.90;;;;;;5053534;28;20032;-67
2022/08/17 10:20:48;;;;;;;10.90;5.35;;;28.70;99.90;;;;;;5055489;28;20100;-67
2022/08/17 10:26:21;;;;;;;13.43;5.50;;;28.70;99.90;;;;;;5052042;28;20071;-67
2022/08/17 10:29:16;;;;;;;9.10;5.38;;;28.50;99.90;;;;;;5055293;28;20090;-67
2022/08/17 10:31:47;;;;;;;8.27;4.88;;;28.20;99.90;;;;;;5055149;28;20032;-67
2022/08/17 10:34:48;;;;;;;7.38;4.45;;;28.40;99.90;;;;;;5055194;28;20473;-67
2022/08/17 10:37:35;;;;;;;7.57;4.50;;;28.70;99.90;;;;;;5055304;28;20029;-67
2022/08/17 10:40:23;;;;;;;8.52;5.30;;;29.20;99.90;;;;;;5054129;28;20029;-67
2022/08/17 10:42:57;;;;;;;11.50;6.07;;;29.30;99.90;;;;;;5054705;28;20116;-67
2022/08/17 10:45:48;;;;;;;13.70;5.85;;;29.10;99.90;;;;;;5054727;28;20020;-67
2022/08/17 10:48:27;;;;;;;11.57;6.13;;;28.90;99.90;;;;;;5054577;28;20473;-67
2022/08/17 10:50:58;;;;;;;13.32;5.78;;;28.70;99.90;;;;;;5053912;28;20025;-67
2022/08/17 10:53:30;;;;;;;8.20;5.50;;;28.60;99.90;;;;;;5053296;28;20082;-67
2022/08/17 10:56:11;;;;;;;10.57;4.93;;;28.20;99.90;;;;;;5053472;28;20036;-67
2022/08/17 10:58:49;;;;;;;10.30;5.38;;;28.30;99.90;;;;;;5036484;28;20032;-67
2022/08/17 11:01:20;;;;;;;10.73;5.35;;;28.40;99.90;;;;;;5054733;28;20032;-67
2022/08/17 11:03:53;;;;;;;12.02;5.65;;;28.50;99.90;;;;;;5054555;28;20035;-67
2022/08/17 11:06:48;;;;;;;9.90;5.18;;;28.40;99.90;;;;;;5054231;28;20029;-67
2022/08/17 11:09:28;;;;;;;10.38;5.60;;;28.40;99.90;;;;;;5054889;28;20048;-67
2022/08/17 11:12:21;;;;;;;12.15;6.10;;;28.40;99.90;;;;;;5053382;28;20530;-67
2022/08/17 11:14:47;;;;;;;6.43;4.18;;;28.50;99.90;;;;;;5053504;28;20029;-67
2022/08/17 11:17:48;;;;;;;12.38;4.47;;;28.70;99.90;;;;;;5049781;28;20451;-67
2022/08/17 11:20:33;;;;;;;9.07;5.18;;;28.90;99.90;;;;;;5041421;28;20490;-68
2022/08/17 11:23:13;;;;;;;11.70;5.10;;;29.10;99.90;;;;;;5053812;28;20021;-68
2022/08/17 11:25:53;;;;;;;10.30;5.63;;;29.30;99.90;;;;;;5054311;28;20032;-68
2022/08/17 11:28:34;;;;;;;12.10;5.18;;;29.50;99.90;;;;;;5054199;28;20025;-68
2022/08/17 11:31:08;;;;;;;18.63;4.93;;;29.60;99.90;;;;;;5052960;28;20507;-68
2022/08/17 11:33:34;;;;;;;6.13;4.35;;;29.30;99.90;;;;;;5054094;28;20029;-68
2022/08/17 11:36:37;;;;;;;14.02;4.78;;;29.30;99.90;;;;;;5053658;28;20362;-68
2022/08/17 11:39:28;;;;;;;9.77;4.55;;;29.40;99.90;;;;;;5053761;28;20036;-67
2022/08/17 11:41:59;;;;;;;15.75;4.95;;;29.50;99.90;;;;;;5053413;28;20104;-67
2022/08/17 11:44:45;;;;;;;10.73;5.22;;;29.60;99.90;;;;;;5053866;28;20388;-67
2022/08/17 11:53:35;;;;;;;8.15;4.93;;;29.20;99.90;;;;;;5054321;28;20555;-67
2022/08/17 11:56:08;;;;;;;10.10;5.00;;;29.10;99.90;;;;;;5052982;28;20075;-67
2022/08/17 11:58:43;;;;;;;7.65;5.15;;;29.20;99.90;;;;;;5053745;28;20384;-67
2022/08/17 12:01:12;;;;;;;15.18;6.28;;;29.40;99.90;;;;;;5051349;28;20037;-67
2022/08/17 12:03:41;;;;;;;5.70;4.50;;;29.40;99.90;;;;;;5053351;28;20078;-67
2022/08/17 12:06:16;;;;;;;10.35;5.03;;;29.50;99.90;;;;;;5053325;28;20453;-68
2022/08/17 12:08:50;;;;;;;7.95;5.20;;;29.60;99.90;;;;;;5053601;28;20027;-68
2022/08/17 12:11:22;;;;;;;6.40;5.10;;;29.70;99.90;;;;;;5053186;28;20477;-67
2022/08/17 12:13:53;;;;;;;11.50;5.37;;;29.70;99.90;;;;;;5053527;28;20355;-67
2022/08/17 12:16:20;;;;;;;5.65;4.20;;;30.00;99.90;;;;;;5053252;28;20033;-67
2022/08/17 12:19:01;;;;;;;7.68;5.00;;;30.20;99.90;;;;;;5052107;28;20033;-67
2022/08/17 12:21:31;;;;;;;9.27;4.60;;;30.40;99.90;;;;;;5053508;28;20058;-67
2022/08/17 12:24:13;;;;;;;9.25;4.75;;;30.60;99.90;;;;;;5053275;28;20075;-67
2022/08/17 12:26:42;;;;;;;9.63;4.75;;;30.60;99.90;;;;;;5053172;28;20083;-67
2022/08/17 12:29:16;;;;;;;7.93;5.10;;;30.60;99.90;;;;;;5053147;28;20429;-67
2022/08/17 12:31:45;;;;;;;8.07;5.43;;;30.70;99.90;;;;;;5052326;28;20047;-67
2022/08/17 12:34:38;;;;;;;10.63;4.30;;;30.70;99.90;;;;;;5053033;28;20393;-67
2022/08/17 12:37:12;;;;;;;11.55;4.80;;;30.60;99.90;;;;;;5053383;28;20041;-67
2022/08/17 12:39:39;;;;;;;8.10;3.88;;;30.50;99.90;;;;;;5053320;28;20017;-67
2022/08/17 12:42:05;;;;;;;11.65;4.20;;;30.80;99.90;;;;;;5049620;28;20021;-67
2022/08/17 12:44:34;;;;;;;8.77;4.53;;;31.20;99.90;;;;;;5035142;28;20511;-67
2022/08/17 12:47:13;;;;;;;8.25;4.07;;;31.40;99.90;;;;;;5033120;28;20032;-68
2022/08/17 12:49:44;;;;;;;5.32;4.60;;;31.40;99.90;;;;;;5033178;28;20030;-67
2022/08/17 12:52:22;;;;;;;6.30;4.18;;;31.50;99.90;;;;;;5033596;28;20024;-67
2022/08/17 12:54:54;;;;;;;9.13;4.10;;;31.50;99.90;;;;;;5033471;28;20108;-67
2022/08/17 12:57:23;;;;;;;12.38;4.18;;;31.50;99.90;;;;;;5033537;28;20100;-67
2022/08/17 12:59:57;;;;;;;6.88;4.30;;;31.90;99.90;;;;;;5033142;28;20107;-67
2022/08/17 13:02:42;;;;;;;7.60;4.00;;;32.40;99.90;;;;;;5035191;28;20096;-67
2022/08/17 13:05:19;;;;;;;8.15;4.07;;;32.60;99.90;;;;;;5050889;28;20017;-68
2022/08/17 13:07:45;;;;;;;10.38;4.60;;;32.70;99.90;;;;;;5052858;28;20029;-65
2022/08/17 13:10:36;;;;;;;13.70;4.40;;;32.80;99.90;;;;;;5052618;28;20028;-65
2022/08/17 13:13:18;;;;;;;12.70;4.78;;;32.80;99.90;;;;;;5054160;28;20100;-67
2022/08/17 13:15:52;;;;;;;6.05;4.35;;;32.00;99.90;;;;;;5056584;28;20013;-67
2022/08/17 13:18:32;;;;;;;17.02;4.95;;;31.60;99.90;;;;;;5056453;28;20025;-67
2022/08/17 13:20:59;;;;;;;7.50;4.40;;;31.10;99.90;;;;;;5054636;28;20020;-67
2022/08/17 13:23:28;;;;;;;10.60;5.03;;;31.00;99.90;;;;;;5056276;28;20051;-67
2022/08/17 13:26:05;;;;;;;7.38;4.38;;;30.90;99.90;;;;;;5056163;28;20029;-67
2022/08/17 13:28:32;;;;;;;9.25;4.53;;;30.80;99.90;;;;;;5056492;28;20032;-67
2022/08/17 13:31:26;;;;;;;6.50;3.72;;;30.60;99.90;;;;;;5056138;28;20033;-67